sensor_id;sensor_type;location;lat;lon;timestamp;pressure;altitude;pressure_sealevel;temperature;humidity
57904;BME280;43720;47.462;19.030;2023-07-20T04:55:39;99712.94;;;23.21;69.90
57904;BME280;43720;47.462;19.030;2023-07-20T04:58:43;99709.66;;;23.33;67.12
57904;BME280;43720;47.462;19.030;2023-07-20T05:01:45;99712.91;;;23.40;66.13
57904;BME280;43720;47.462;19.030;2023-07-20T05:04:48;99707.97;;;23.50;66.34
57904;BME280;43720;47.462;19.030;2023-07-20T05:07:50;99717.78;;;23.68;65.13
57904;BME280;43720;47.462;19.030;2023-07-20T05:10:53;99714.25;;;23.67;62.70
57904;BME280;43720;47.462;19.030;2023-07-20T05:13:56;99708.91;;;23.85;58.89
57904;BME280;43720;47.462;19.030;2023-07-20T05:16:58;99706.56;;;24.13;59.62
57904;BME280;43720;47.462;19.030;2023-07-20T05:20:01;99708.12;;;24.17;58.92
57904;BME280;43720;47.462;19.030;2023-07-20T05:23:03;99710.19;;;24.12;59.75
57904;BME280;43720;47.462;19.030;2023-07-20T05:26:06;99721.00;;;24.09;60.74
57904;BME280;43720;47.462;19.030;2023-07-20T05:29:08;99717.59;;;24.23;59.72
57904;BME280;43720;47.462;19.030;2023-07-20T05:32:11;99715.12;;;24.20;60.75
57904;BME280;43720;47.462;19.030;2023-07-20T05:35:13;99710.31;;;24.09;59.49
57904;BME280;43720;47.462;19.030;2023-07-20T05:38:16;99717.69;;;24.22;60.07
57904;BME280;43720;47.462;19.030;2023-07-20T05:41:18;99718.41;;;24.25;59.17
57904;BME280;43720;47.462;19.030;2023-07-20T05:44:21;99727.03;;;24.30;59.18
57904;BME280;43720;47.462;19.030;2023-07-20T05:47:23;99728.59;;;24.34;59.90
57904;BME280;43720;47.462;19.030;2023-07-20T05:50:25;99731.09;;;24.37;56.47
57904;BME280;43720;47.462;19.030;2023-07-20T05:53:28;99720.41;;;24.37;55.34
57904;BME280;43720;47.462;19.030;2023-07-20T05:56:30;99720.03;;;24.45;56.48
57904;BME280;43720;47.462;19.030;2023-07-20T05:59:32;99717.16;;;24.65;53.92
57904;BME280;43720;47.462;19.030;2023-07-20T06:02:35;99723.03;;;24.72;54.69
57904;BME280;43720;47.462;19.030;2023-07-20T06:05:37;99715.03;;;24.88;54.31
57904;BME280;43720;47.462;19.030;2023-07-20T06:08:40;99714.53;;;24.97;53.81
57904;BME280;43720;47.462;19.030;2023-07-20T06:11:43;99715.84;;;25.06;53.01
57904;BME280;43720;47.462;19.030;2023-07-20T06:14:45;99720.25;;;25.07;52.95
57904;BME280;43720;47.462;19.030;2023-07-20T06:17:48;99725.28;;;25.13;53.03
57904;BME280;43720;47.462;19.030;2023-07-20T06:20:51;99722.50;;;25.30;53.30
57904;BME280;43720;47.462;19.030;2023-07-20T06:23:54;99729.06;;;25.41;52.40
57904;BME280;43720;47.462;19.030;2023-07-20T06:26:56;99736.41;;;25.37;53.06
57904;BME280;43720;47.462;19.030;2023-07-20T06:30:00;99737.00;;;25.42;51.90
57904;BME280;43720;47.462;19.030;2023-07-20T06:33:05;99732.34;;;25.46;50.26
57904;BME280;43720;47.462;19.030;2023-07-20T06:36:09;99742.34;;;25.58;50.65
57904;BME280;43720;47.462;19.030;2023-07-20T06:39:12;99744.28;;;25.70;51.54
57904;BME280;43720;47.462;19.030;2023-07-20T06:42:17;99743.16;;;25.74;49.22
57904;BME280;43720;47.462;19.030;2023-07-20T06:45:20;99751.63;;;25.82;49.82
57904;BME280;43720;47.462;19.030;2023-07-20T06:48:22;99748.53;;;25.74;47.78
57904;BME280;43720;47.462;19.030;2023-07-20T06:51:24;99755.44;;;25.78;47.70
57904;BME280;43720;47.462;19.030;2023-07-20T06:54:28;99762.69;;;25.92;48.20
57904;BME280;43720;47.462;19.030;2023-07-20T06:57:36;99774.09;;;25.96;48.18
57904;BME280;43720;47.462;19.030;2023-07-20T07:00:39;99772.09;;;25.99;47.78
57904;BME280;43720;47.462;19.030;2023-07-20T07:03:41;99784.28;;;25.89;49.07
57904;BME280;43720;47.462;19.030;2023-07-20T07:06:43;99765.09;;;25.97;49.49
57904;BME280;43720;47.462;19.030;2023-07-20T07:09:46;99772.44;;;25.93;47.82
57904;BME280;43720;47.462;19.030;2023-07-20T07:12:49;99785.53;;;25.83;47.08
57904;BME280;43720;47.462;19.030;2023-07-20T07:15:52;99778.63;;;25.79;46.21
57904;BME280;43720;47.462;19.030;2023-07-20T07:18:54;99787.25;;;25.84;45.97
57904;BME280;43720;47.462;19.030;2023-07-20T07:22:01;99781.09;;;25.98;45.92
57904;BME280;43720;47.462;19.030;2023-07-20T07:25:06;99781.34;;;25.94;45.21
57904;BME280;43720;47.462;19.030;2023-07-20T07:28:09;99785.56;;;25.98;46.51
57904;BME280;43720;47.462;19.030;2023-07-20T07:31:12;99783.03;;;26.10;45.34
57904;BME280;43720;47.462;19.030;2023-07-20T07:34:14;99776.62;;;26.13;45.12
57904;BME280;43720;47.462;19.030;2023-07-20T07:37:16;99782.75;;;26.15;45.45
57904;BME280;43720;47.462;19.030;2023-07-20T07:40:19;99787.22;;;26.00;45.88
57904;BME280;43720;47.462;19.030;2023-07-20T07:43:21;99794.16;;;26.19;45.64
57904;BME280;43720;47.462;19.030;2023-07-20T07:46:24;99794.06;;;26.20;46.08
57904;BME280;43720;47.462;19.030;2023-07-20T07:49:26;99792.00;;;26.25;46.28
57904;BME280;43720;47.462;19.030;2023-07-20T07:52:29;99790.75;;;26.31;45.34
57904;BME280;43720;47.462;19.030;2023-07-20T07:55:32;99800.50;;;26.32;46.41
57904;BME280;43720;47.462;19.030;2023-07-20T07:58:34;99792.00;;;26.40;45.42
57904;BME280;43720;47.462;19.030;2023-07-20T08:01:37;99780.78;;;26.49;45.19
57904;BME280;43720;47.462;19.030;2023-07-20T08:04:39;99794.75;;;26.54;44.00
57904;BME280;43720;47.462;19.030;2023-07-20T08:07:42;99801.75;;;26.71;43.52
57904;BME280;43720;47.462;19.030;2023-07-20T08:10:45;99793.53;;;26.74;43.96
57904;BME280;43720;47.462;19.030;2023-07-20T08:13:47;99790.00;;;26.88;43.50
57904;BME280;43720;47.462;19.030;2023-07-20T08:16:50;99795.44;;;27.00;43.59
57904;BME280;43720;47.462;19.030;2023-07-20T08:19:52;99789.31;;;26.98;42.58
57904;BME280;43720;47.462;19.030;2023-07-20T08:22:55;99785.09;;;27.08;42.87
57904;BME280;43720;47.462;19.030;2023-07-20T08:25:58;99784.62;;;27.16;43.16
57904;BME280;43720;47.462;19.030;2023-07-20T08:29:00;99785.00;;;27.39;43.07
57904;BME280;43720;47.462;19.030;2023-07-20T08:32:04;99783.91;;;27.41;42.28
57904;BME280;43720;47.462;19.030;2023-07-20T08:35:07;99788.94;;;27.60;41.99
57904;BME280;43720;47.462;19.030;2023-07-20T08:38:09;99787.25;;;27.45;42.22
57904;BME280;43720;47.462;19.030;2023-07-20T08:41:12;99795.72;;;27.39;41.25
57904;BME280;43720;47.462;19.030;2023-07-20T08:44:14;99794.63;;;27.55;41.83
57904;BME280;43720;47.462;19.030;2023-07-20T08:47:17;99804.38;;;27.56;41.55
57904;BME280;43720;47.462;19.030;2023-07-20T08:50:21;99792.19;;;27.38;41.47
57904;BME280;43720;47.462;19.030;2023-07-20T08:53:24;99800.69;;;27.72;40.47
57904;BME280;43720;47.462;19.030;2023-07-20T08:56:27;99799.72;;;27.87;40.95
57904;BME280;43720;47.462;19.030;2023-07-20T08:59:31;99805.47;;;27.54;40.47
57904;BME280;43720;47.462;19.030;2023-07-20T09:02:35;99808.00;;;27.00;41.70
57904;BME280;43720;47.462;19.030;2023-07-20T09:05:41;99816.97;;;26.70;42.22
57904;BME280;43720;47.462;19.030;2023-07-20T09:08:43;99826.13;;;26.52;41.66
57904;BME280;43720;47.462;19.030;2023-07-20T09:11:49;99818.41;;;26.31;40.30
57904;BME280;43720;47.462;19.030;2023-07-20T09:14:51;99831.91;;;26.60;40.28
57904;BME280;43720;47.462;19.030;2023-07-20T09:17:54;99837.59;;;26.84;40.81
57904;BME280;43720;47.462;19.030;2023-07-20T09:21:05;99826.31;;;27.07;40.72
57904;BME280;43720;47.462;19.030;2023-07-20T09:24:08;99834.00;;;27.14;39.63
57904;BME280;43720;47.462;19.030;2023-07-20T09:27:10;99840.84;;;26.89;40.50
57904;BME280;43720;47.462;19.030;2023-07-20T09:30:14;99826.16;;;27.11;40.63
57904;BME280;43720;47.462;19.030;2023-07-20T09:33:23;99830.31;;;27.43;39.30
57904;BME280;43720;47.462;19.030;2023-07-20T09:36:33;99831.13;;;27.72;40.26
57904;BME280;43720;47.462;19.030;2023-07-20T09:39:45;99829.34;;;27.59;38.78
57904;BME280;43720;47.462;19.030;2023-07-20T09:42:53;99835.56;;;27.59;39.48
57904;BME280;43720;47.462;19.030;2023-07-20T09:46:04;99828.31;;;27.47;39.94
57904;BME280;43720;47.462;19.030;2023-07-20T09:49:08;99828.72;;;27.82;40.00
57904;BME280;43720;47.462;19.030;2023-07-20T09:52:14;99828.84;;;28.08;39.00
57904;BME280;43720;47.462;19.030;2023-07-20T09:55:38;99821.28;;;28.00;38.62
57904;BME280;43720;47.462;19.030;2023-07-20T09:58:41;99815.34;;;28.35;38.59
57904;BME280;43720;47.462;19.030;2023-07-20T10:01:46;99816.78;;;28.53;37.82
57904;BME280;43720;47.462;19.030;2023-07-20T10:04:52;99830.19;;;28.27;38.43
57904;BME280;43720;47.462;19.030;2023-07-20T10:07:56;99830.56;;;27.82;38.51
57904;BME280;43720;47.462;19.030;2023-07-20T10:11:03;99826.63;;;27.73;38.68
57904;BME280;43720;47.462;19.030;2023-07-20T10:14:06;99837.66;;;27.83;39.22
57904;BME280;43720;47.462;19.030;2023-07-20T10:17:11;99843.81;;;28.24;37.92
57904;BME280;43720;47.462;19.030;2023-07-20T10:20:16;99854.34;;;28.55;37.40
57904;BME280;43720;47.462;19.030;2023-07-20T10:23:22;99852.72;;;28.39;38.43
57904;BME280;43720;47.462;19.030;2023-07-20T10:26:26;99857.13;;;28.13;38.27
57904;BME280;43720;47.462;19.030;2023-07-20T10:29:29;99877.94;;;27.83;39.46
57904;BME280;43720;47.462;19.030;2023-07-20T10:32:32;99861.75;;;27.41;40.87
57904;BME280;43720;47.462;19.030;2023-07-20T10:35:57;99862.59;;;27.85;40.98
57904;BME280;43720;47.462;19.030;2023-07-20T10:38:59;99838.69;;;27.80;40.20
57904;BME280;43720;47.462;19.030;2023-07-20T10:42:06;99847.13;;;28.15;40.13
57904;BME280;43720;47.462;19.030;2023-07-20T10:45:10;99851.94;;;28.37;39.49
57904;BME280;43720;47.462;19.030;2023-07-20T10:51:23;99844.66;;;28.12;39.10
57904;BME280;43720;47.462;19.030;2023-07-20T10:57:31;99844.44;;;28.15;40.60
